createdAt,value
2018-03-27T08:12:35.795Z,67.26
2018-03-27T08:15:03.938Z,67.11
2018-03-27T08:17:32.076Z,68.26
2018-03-27T08:20:00.228Z,66.15
2018-03-27T08:22:32.233Z,67.09
2018-03-27T08:25:00.369Z,66.09
2018-03-27T08:27:29.188Z,64.69
2018-03-27T08:29:57.366Z,63.35
2018-03-27T08:32:25.588Z,62.20
2018-03-27T08:34:57.105Z,63.51
2018-03-27T08:37:25.242Z,63.16
2018-03-27T08:39:57.847Z,60.24
2018-03-27T08:42:26.035Z,59.46
2018-03-27T08:44:54.296Z,61.24
2018-03-27T08:47:26.306Z,59.18
2018-03-27T08:49:57.771Z,57.36
2018-03-27T08:52:26.014Z,56.67
2018-03-27T08:54:54.266Z,55.33
2018-03-27T08:57:22.451Z,54.13
2018-03-27T08:59:53.738Z,52.44
2018-03-27T09:02:22.769Z,52.10
2018-03-27T09:04:51.051Z,51.66
2018-03-27T09:07:19.197Z,51.87
2018-03-27T09:09:47.360Z,52.60
2018-03-27T09:12:17.478Z,52.44
2018-03-27T09:14:45.649Z,52.52
2018-03-27T09:17:15.769Z,52.57
2018-03-27T09:19:43.954Z,51.94
2018-03-27T09:22:17.284Z,51.13
2018-03-27T09:24:45.512Z,50.19
2018-03-27T09:27:14.620Z,50.28
2018-03-27T09:29:49.119Z,51.21
2018-03-27T09:32:17.354Z,49.63
2018-03-27T09:34:45.495Z,49.23
2018-03-27T09:37:13.640Z,48.29
2018-03-27T09:39:42.951Z,46.89
2018-03-27T09:42:11.147Z,47.35
2018-03-27T09:44:39.325Z,48.16
2018-03-27T09:47:07.454Z,46.22
2018-03-27T09:49:35.625Z,46.08
2018-03-27T09:52:03.788Z,46.55
2018-03-27T09:54:32.122Z,45.03
2018-03-27T09:57:00.284Z,44.49
2018-03-27T09:59:28.589Z,44.55
2018-03-27T10:01:56.900Z,44.96
2018-03-27T10:04:25.105Z,44.68
2018-03-27T10:06:53.263Z,45.95
2018-03-27T10:09:21.919Z,44.16
2018-03-27T10:11:50.112Z,44.17
2018-03-27T10:14:18.261Z,45.78
2018-03-27T10:16:46.420Z,44.66
2018-03-27T10:19:14.598Z,45.83
2018-03-27T10:21:42.750Z,45.08
2018-03-27T10:24:10.923Z,44.62
2018-03-27T10:26:39.064Z,44.67
2018-03-27T10:29:07.263Z,43.90
2018-03-27T10:31:35.735Z,44.00
2018-03-27T10:34:03.962Z,42.94
2018-03-27T10:36:32.186Z,43.90
2018-03-27T10:39:00.336Z,43.29
2018-03-27T10:41:28.798Z,44.24
2018-03-27T10:43:57.040Z,45.03
2018-03-27T10:46:25.173Z,44.77
2018-03-27T10:48:53.426Z,44.63
2018-03-27T10:51:21.666Z,43.84
2018-03-27T10:53:49.833Z,42.15
2018-03-27T10:56:18.094Z,42.36
2018-03-27T10:58:46.243Z,42.23
2018-03-27T11:01:14.394Z,40.60
2018-03-27T11:03:42.565Z,39.82
2018-03-27T11:06:10.811Z,39.63
2018-03-27T11:08:38.967Z,38.66
2018-03-27T11:11:07.146Z,39.96
2018-03-27T11:13:35.409Z,40.24
2018-03-27T11:16:03.709Z,40.18
2018-03-27T11:18:31.853Z,40.89
2018-03-27T11:21:00.016Z,40.00
2018-03-27T11:23:28.636Z,39.62
2018-03-27T11:25:56.860Z,39.25
2018-03-27T11:28:25.065Z,39.33
2018-03-27T11:30:53.203Z,39.64
2018-03-27T11:33:21.352Z,39.65
2018-03-27T11:35:49.600Z,39.53
2018-03-27T11:38:17.723Z,40.38
2018-03-27T11:40:46.435Z,40.68
2018-03-27T11:43:14.612Z,39.96
2018-03-27T11:45:42.992Z,41.34
2018-03-27T11:48:11.342Z,41.26
2018-03-27T11:50:39.536Z,41.67
2018-03-27T11:53:07.689Z,41.74
2018-03-27T11:55:36.056Z,46.51
2018-03-27T11:58:04.282Z,43.01
2018-03-27T12:00:32.430Z,43.65
2018-03-27T12:03:00.775Z,43.56
2018-03-27T12:05:28.953Z,43.93
2018-03-27T12:07:57.119Z,42.78
2018-03-27T12:10:25.409Z,43.63
2018-03-27T12:12:53.613Z,43.38
2018-03-27T12:15:21.738Z,42.97
2018-03-27T12:17:49.962Z,43.59
2018-03-27T12:20:18.185Z,44.29
2018-03-27T12:22:46.415Z,44.69
2018-03-27T12:25:14.599Z,45.00
2018-03-27T12:27:42.776Z,44.57
2018-03-27T12:30:11.020Z,44.09
2018-03-27T12:32:39.237Z,44.83
2018-03-27T12:35:07.409Z,44.09
2018-03-27T12:37:35.608Z,44.58
2018-03-27T12:40:03.796Z,42.68
2018-03-27T12:42:31.981Z,44.55
2018-03-27T12:45:00.166Z,46.10
2018-03-27T12:47:28.325Z,45.08
2018-03-27T12:49:56.465Z,46.00
2018-03-27T12:52:24.659Z,45.11
2018-03-27T12:54:52.829Z,45.63
2018-03-27T12:57:21.043Z,45.77
2018-03-27T12:59:49.332Z,46.06
2018-03-27T13:02:17.476Z,45.82
2018-03-27T13:04:45.614Z,45.89
2018-03-27T13:07:13.786Z,45.75
2018-03-27T13:09:41.934Z,46.25
2018-03-27T13:12:10.122Z,46.15
2018-03-27T13:14:38.267Z,45.90
2018-03-27T13:17:06.473Z,46.01
2018-03-27T13:19:34.647Z,46.02
2018-03-27T13:22:02.790Z,46.30
2018-03-27T13:24:30.957Z,47.49
2018-03-27T13:26:59.106Z,47.66
2018-03-27T13:29:27.274Z,48.31
2018-03-27T15:38:37.179Z,44.65
2018-03-27T15:41:05.393Z,49.92
2018-03-27T15:43:33.545Z,53.03
2018-03-27T15:46:01.680Z,57.22
2018-03-27T15:48:29.847Z,60.36
2018-03-27T15:50:58.011Z,61.86
2018-03-27T15:53:26.167Z,63.59
2018-03-27T15:55:54.313Z,64.98
2018-03-27T15:58:22.459Z,66.19
2018-03-27T16:00:50.635Z,68.40
2018-03-27T16:03:18.791Z,69.78
2018-03-27T16:05:46.962Z,71.38
2018-03-27T16:08:15.105Z,70.68
2018-03-27T16:10:43.261Z,71.63
2018-03-27T16:13:11.408Z,72.43
2018-03-27T16:15:39.667Z,73.85
2018-03-27T16:18:07.816Z,73.96
2018-03-27T16:20:35.983Z,74.24
2018-03-27T16:23:04.141Z,75.18
2018-03-27T16:25:32.274Z,75.53
2018-03-27T16:28:00.405Z,75.22
2018-03-27T16:30:28.570Z,75.31
2018-03-27T16:32:56.728Z,75.27
2018-03-27T16:35:24.878Z,75.84
2018-03-27T16:37:53.062Z,75.84
2018-03-27T16:40:21.217Z,76.44
2018-03-27T16:42:49.406Z,76.09
2018-03-27T16:45:17.542Z,76.46
2018-03-27T16:47:45.692Z,77.57
2018-03-27T16:50:13.863Z,77.19
2018-03-27T16:52:42.005Z,76.83
2018-03-27T16:55:10.154Z,76.95
2018-03-27T16:57:38.308Z,77.87
2018-03-27T17:00:06.494Z,77.83
2018-03-27T17:02:35.578Z,76.30
2018-03-27T17:05:03.775Z,77.75
2018-03-27T17:07:31.949Z,77.37
2018-03-27T17:10:00.089Z,77.47
2018-03-27T17:12:28.233Z,79.04
2018-03-27T17:14:56.401Z,78.74
2018-03-27T17:17:24.533Z,79.36
2018-03-27T17:19:52.676Z,79.51
2018-03-27T17:22:20.830Z,79.37
2018-03-27T17:24:48.975Z,79.72
2018-03-27T17:27:17.113Z,79.09
2018-03-27T17:29:45.305Z,78.87
2018-03-27T17:32:13.444Z,78.14
2018-03-27T17:34:41.627Z,78.91
2018-03-27T17:37:09.788Z,78.62
2018-03-27T17:39:37.891Z,79.19
2018-03-27T17:42:06.044Z,79.87
2018-03-27T17:44:34.183Z,80.90
2018-03-27T17:47:02.324Z,81.40
2018-03-27T17:49:30.508Z,81.34
2018-03-27T17:51:58.654Z,81.71
2018-03-27T17:54:26.787Z,82.12
2018-03-27T17:56:54.968Z,81.33
2018-03-27T17:59:23.090Z,80.52
2018-03-27T18:01:51.254Z,80.05
2018-03-27T18:04:19.409Z,80.19
2018-03-27T18:06:47.556Z,79.79
2018-03-27T18:09:15.705Z,80.16
2018-03-27T18:11:43.869Z,77.93
2018-03-27T18:14:12.011Z,77.50
2018-03-27T18:16:40.162Z,79.09
2018-03-27T18:19:08.302Z,78.05
2018-03-27T18:21:36.872Z,79.72
2018-03-27T18:24:05.035Z,78.29
2018-03-27T18:26:33.188Z,78.44
2018-03-27T18:29:01.323Z,79.27
2018-03-27T18:31:29.565Z,79.53
2018-03-27T18:33:57.690Z,80.32
2018-03-27T18:36:25.838Z,80.56
2018-03-27T18:38:53.950Z,80.69
2018-03-27T18:41:22.096Z,80.94
2018-03-27T18:43:50.268Z,79.38
2018-03-27T18:46:18.426Z,80.68
2018-03-27T18:48:46.558Z,81.41
2018-03-27T18:51:14.696Z,82.67
2018-03-27T18:53:42.820Z,82.38
2018-03-27T18:56:10.965Z,80.96
2018-03-27T18:58:39.131Z,81.80
2018-03-27T19:01:07.284Z,82.00
2018-03-27T19:03:35.398Z,81.51
2018-03-27T19:06:07.174Z,82.06
2018-03-27T19:08:35.330Z,80.79
2018-03-27T19:11:03.488Z,82.04
2018-03-27T19:13:31.705Z,81.82
2018-03-27T19:15:59.953Z,80.99
2018-03-27T19:18:28.096Z,81.68
2018-03-27T19:20:56.277Z,82.34
2018-03-27T19:23:24.387Z,82.57
2018-03-27T19:25:52.567Z,83.22
2018-03-27T19:28:20.717Z,84.10
2018-03-27T19:30:48.917Z,82.46
2018-03-27T19:33:17.063Z,82.85
2018-03-27T19:35:45.190Z,83.02
2018-03-27T19:38:13.312Z,84.14
2018-03-27T19:40:41.748Z,84.20
2018-03-27T19:43:13.744Z,85.46
2018-03-27T19:45:42.240Z,85.70
2018-03-27T19:48:11.423Z,84.79
2018-03-27T19:50:41.416Z,84.56
2018-03-27T19:53:09.565Z,84.17
2018-03-27T19:55:37.700Z,84.83
2018-03-27T19:58:09.561Z,85.17
2018-03-27T20:00:37.706Z,85.65
2018-03-27T20:03:05.852Z,85.76
2018-03-27T20:05:33.995Z,86.11
2018-03-27T20:08:02.167Z,86.21
2018-03-27T20:10:30.306Z,87.09
2018-03-27T20:12:58.444Z,86.25
2018-03-27T20:15:26.739Z,86.27
2018-03-27T20:17:55.056Z,86.25
2018-03-27T20:20:23.314Z,86.63
2018-03-27T20:22:51.446Z,86.93
2018-03-27T20:25:19.591Z,86.31
2018-03-27T20:27:47.746Z,86.31
2018-03-27T20:30:19.951Z,86.41
2018-03-27T20:32:48.322Z,85.25
2018-03-27T20:35:18.106Z,86.04
2018-03-27T20:37:47.325Z,85.36
2018-03-27T20:40:16.487Z,85.48
2018-03-27T20:42:46.567Z,84.50
2018-03-27T20:45:15.241Z,85.74
2018-03-27T20:47:43.928Z,86.55
2018-03-27T20:50:12.222Z,86.35
2018-03-27T20:52:40.902Z,86.21
2018-03-27T20:55:10.785Z,86.91
2018-03-27T20:57:40.320Z,86.78
2018-03-27T21:00:11.695Z,87.84
2018-03-27T21:02:40.155Z,87.50
2018-03-27T21:05:08.332Z,88.20
2018-03-27T21:07:36.477Z,88.50
2018-03-27T21:10:04.630Z,87.80
2018-03-27T21:12:32.768Z,88.40
2018-03-27T21:15:02.880Z,89.07
2018-03-27T21:17:32.570Z,88.17
2018-03-27T21:20:03.054Z,88.09
2018-03-27T21:22:33.446Z,87.58
2018-03-27T21:25:05.722Z,88.90
2018-03-27T21:27:36.689Z,89.32
2018-03-27T21:30:07.111Z,89.52
2018-03-27T21:32:35.418Z,89.78
2018-03-27T21:35:03.579Z,88.50
2018-03-27T21:37:31.733Z,89.40
2018-03-27T21:39:59.913Z,89.93
2018-03-27T21:42:28.061Z,89.12
2018-03-27T21:44:56.219Z,88.18
2018-03-27T21:47:24.435Z,87.26
2018-03-27T21:49:52.574Z,87.74
2018-03-27T21:52:20.724Z,88.08
2018-03-27T21:54:48.844Z,88.33
2018-03-27T21:57:17.002Z,87.53
2018-03-27T21:59:45.162Z,87.85
2018-03-27T22:02:13.300Z,87.56
2018-03-27T22:04:41.445Z,86.32
2018-03-27T22:07:09.646Z,87.09
2018-03-27T22:09:37.943Z,87.47
2018-03-27T22:12:06.089Z,86.31
2018-03-27T22:14:34.241Z,86.60
2018-03-27T22:17:02.446Z,86.78
2018-03-27T22:19:30.610Z,87.30
2018-03-27T22:21:58.767Z,87.92
2018-03-27T22:24:26.952Z,87.60
2018-03-27T22:26:55.062Z,87.12
2018-03-27T22:29:23.300Z,87.35
2018-03-27T22:31:54.739Z,87.31
2018-03-27T22:34:22.911Z,87.61
2018-03-27T22:36:51.077Z,88.50
2018-03-27T22:39:19.225Z,88.02
2018-03-27T22:41:47.368Z,88.13
2018-03-27T22:44:15.494Z,88.09
2018-03-27T22:46:43.617Z,87.38
2018-03-27T22:49:11.772Z,87.13
2018-03-27T22:51:39.951Z,87.36
2018-03-27T22:54:08.117Z,85.53
2018-03-27T22:56:36.259Z,86.12
2018-03-27T22:59:04.404Z,85.43
2018-03-27T23:01:32.576Z,85.46
2018-03-27T23:04:00.734Z,84.93
2018-03-27T23:06:28.884Z,85.08
2018-03-27T23:08:57.038Z,85.36
2018-03-27T23:11:25.188Z,86.03
2018-03-27T23:13:53.345Z,85.45
2018-03-27T23:16:21.490Z,85.81
2018-03-27T23:18:49.701Z,85.75
2018-03-27T23:21:17.862Z,86.16
2018-03-27T23:23:46.005Z,85.76
2018-03-27T23:26:14.146Z,86.52
2018-03-27T23:28:42.298Z,86.45
2018-03-27T23:31:10.419Z,85.95
2018-03-27T23:33:38.585Z,85.80
2018-03-27T23:36:06.705Z,85.26
2018-03-27T23:38:34.864Z,85.33
2018-03-27T23:41:03.010Z,84.65
2018-03-27T23:43:31.163Z,84.42
2018-03-27T23:45:59.369Z,84.27
2018-03-27T23:48:27.482Z,84.26
2018-03-27T23:50:55.626Z,83.55
2018-03-27T23:53:23.813Z,84.54
2018-03-27T23:55:52.043Z,84.32
2018-03-27T23:58:20.198Z,84.20
